Time;durP1;ratioP1;P1;durP2;ratioP2;P2;SDS_P1;SDS_P2;PMS_P1;PMS_P2;Temp;Humidity;BMP_temperature;BMP_pressure;BME280_temperature;BME280_humidity;BME280_pressure;Samples;Min_cycle;Max_cycle;Signal;HPM_P1;HPM_P2
2023/08/20 00:00:14;;;;;;;0.10;0.10;;;;;;;25.02;53.84;101320.09;4922361;29;20073;-92
2023/08/20 00:02:43;;;;;;;0.10;0.10;;;;;;;25.15;53.80;101360.25;4905904;29;20055;-92
2023/08/20 00:05:09;;;;;;;0.10;0.10;;;;;;;24.88;53.93;101324.06;4905932;29;20046;-93
2023/08/20 00:07:35;;;;;;;0.10;0.10;;;;;;;24.80;53.99;101324.81;4906866;29;20035;-93
2023/08/20 00:10:04;;;;;;;0.10;0.10;;;;;;;24.66;55.05;101322.69;4906079;29;20513;-91
2023/08/20 00:12:29;;;;;;;0.10;0.10;;;;;;;24.63;54.96;101319.50;4922467;29;20035;-93
2023/08/20 00:15:04;;;;;;;0.10;0.10;;;;;;;24.78;54.77;101340.03;4906714;29;20031;-92
2023/08/20 00:17:34;;;;;;;0.10;0.10;;;;;;;24.63;55.48;101325.63;4908046;29;20035;-92
2023/08/20 00:20:00;;;;;;;0.10;0.10;;;;;;;24.65;54.85;101312.25;4906672;29;20031;-92
2023/08/20 00:22:26;;;;;;;0.10;0.10;;;;;;;24.69;55.44;101356.81;4906433;29;20031;-93
2023/08/20 00:24:53;;;;;;;0.10;0.10;;;;;;;24.50;55.22;101338.41;4905993;29;20019;-93
2023/08/20 00:27:18;;;;;;;0.20;0.20;;;;;;;24.46;54.71;101307.91;4908761;29;20054;-93
2023/08/20 00:29:44;;;;;;;0.20;0.20;;;;;;;24.82;54.38;101353.78;4909781;29;20493;-94
2023/08/20 00:32:09;;;;;;;0.20;0.20;;;;;;;24.76;54.97;101362.31;4909611;29;20048;-92
2023/08/20 00:34:35;;;;;;;0.10;0.10;;;;;;;24.61;54.80;101343.47;4909158;29;20039;-93
2023/08/20 00:37:02;;;;;;;0.10;0.10;;;;;;;24.70;54.92;101363.75;4910802;29;20051;-93
2023/08/20 00:39:27;;;;;;;0.10;0.10;;;;;;;24.45;55.07;101332.69;4910591;29;20417;-93
2023/08/20 00:41:53;;;;;;;0.10;0.10;;;;;;;24.51;55.10;101340.06;4911083;29;20031;-91
2023/08/20 00:44:19;;;;;;;0.10;0.10;;;;;;;24.46;55.48;101329.06;4909435;29;20489;-92
2023/08/20 00:46:44;;;;;;;0.10;0.10;;;;;;;24.53;54.75;101336.28;4910040;29;20043;-92
2023/08/20 00:49:10;;;;;;;0.10;0.10;;;;;;;24.51;54.98;101332.13;4910149;29;20107;-92
2023/08/20 00:51:35;;;;;;;0.10;0.10;;;;;;;24.37;55.36;101330.78;4909804;29;20031;-93
2023/08/20 00:54:02;;;;;;;0.10;0.10;;;;;;;24.55;55.48;101359.94;4910162;29;20034;-92
2023/08/20 00:56:27;;;;;;;0.10;0.10;;;;;;;24.39;56.00;101352.66;4925235;29;20027;-94
2023/08/20 00:58:54;;;;;;;0.10;0.10;;;;;;;24.50;55.84;101365.69;4909764;29;20074;-93
2023/08/20 01:01:19;;;;;;;0.10;0.10;;;;;;;24.52;55.07;101357.59;4909400;29;20035;-92
2023/08/20 01:03:45;;;;;;;0.10;0.10;;;;;;;24.25;55.50;101326.66;4908969;29;20106;-93
2023/08/20 01:06:44;;;;;;;0.20;0.20;;;;;;;24.35;55.96;101366.31;4908560;29;20046;-92
2023/08/20 01:09:37;;;;;;;0.10;0.10;;;;;;;24.00;56.35;101321.06;4919488;29;20035;-91
2023/08/20 01:12:03;;;;;;;0.10;0.10;;;;;;;24.02;56.74;101334.13;4911870;29;20027;-93
2023/08/20 01:14:28;;;;;;;0.10;0.10;;;;;;;24.13;57.08;101355.09;4909727;29;20046;-92
2023/08/20 01:16:54;;;;;;;0.10;0.10;;;;;;;23.88;57.25;101318.72;4909319;29;20032;-93
2023/08/20 01:19:21;;;;;;;0.20;0.20;;;;;;;23.94;57.02;101331.38;4908846;29;20078;-93
2023/08/20 01:22:24;;;;;;;0.17;0.17;;;;;;;23.87;57.68;101348.78;4924332;29;20063;-92
2023/08/20 01:25:27;;;;;;;0.10;0.10;;;;;;;23.95;57.97;101372.69;4926831;29;20042;-93
2023/08/20 01:27:56;;;;;;;0.10;0.10;;;;;;;23.80;58.40;101369.69;4939933;29;20031;-92
2023/08/20 01:30:22;;;;;;;0.10;0.10;;;;;;;23.73;58.56;101361.47;4924652;29;20050;-92
2023/08/20 01:32:49;;;;;;;0.10;0.10;;;;;;;23.78;58.23;101370.78;4908506;29;20069;-92
2023/08/20 01:35:15;;;;;;;0.20;0.20;;;;;;;23.77;57.97;101369.94;4924667;29;20082;-93
2023/08/20 01:37:40;;;;;;;0.10;0.10;;;;;;;23.64;58.47;101369.41;4908045;29;20501;-92
2023/08/20 01:40:10;;;;;;;0.10;0.10;;;;;;;23.60;58.37;101368.88;4908405;29;20027;-92
2023/08/20 01:42:36;;;;;;;0.20;0.20;;;;;;;23.41;59.21;101348.59;4924537;29;20069;-94
2023/08/20 01:45:02;;;;;;;0.10;0.10;;;;;;;23.53;59.30;101374.84;4908438;29;20019;-93
2023/08/20 01:47:27;;;;;;;0.20;0.20;;;;;;;23.66;58.30;101355.09;4907939;29;20058;-91
2023/08/20 01:49:53;;;;;;;0.10;0.10;;;;;;;23.53;58.59;101362.47;4907931;29;20058;-92
2023/08/20 01:52:18;;;;;;;0.10;0.10;;;;;;;23.64;58.40;101367.63;4923494;29;20039;-93
2023/08/20 01:54:44;;;;;;;0.10;0.10;;;;;;;23.65;58.19;101371.09;4907779;29;20512;-92
2023/08/20 01:57:09;;;;;;;0.10;0.10;;;;;;;23.60;58.12;101370.69;4907834;29;20044;-92
2023/08/20 01:59:35;;;;;;;0.10;0.10;;;;;;;23.46;57.99;101350.78;4907707;29;20035;-92
2023/08/20 02:02:20;;;;;;;0.10;0.10;;;;;;;23.45;58.39;101367.59;4907716;29;20035;-92
2023/08/20 02:04:45;;;;;;;0.10;0.10;;;;;;;23.35;58.58;101364.13;4923509;29;20066;-92
2023/08/20 02:07:11;;;;;;;0.10;0.10;;;;;;;23.36;58.76;101365.81;4907621;29;20023;-93
2023/08/20 02:09:37;;;;;;;0.10;0.10;;;;;;;23.10;58.93;101328.56;4923157;29;20520;-92
2023/08/20 02:12:03;;;;;;;0.20;0.20;;;;;;;23.32;59.29;101349.41;4907513;29;20027;-91
2023/08/20 02:14:29;;;;;;;0.10;0.10;;;;;;;23.11;59.28;101333.72;4907403;29;20094;-93
2023/08/20 02:16:54;;;;;;;0.13;0.13;;;;;;;23.35;59.12;101356.22;4907592;29;20034;-92
2023/08/20 02:19:20;;;;;;;0.10;0.10;;;;;;;23.30;59.05;101355.78;4907782;29;20035;-93
2023/08/20 02:21:45;;;;;;;0.10;0.10;;;;;;;23.34;58.75;101359.84;4907816;29;20024;-93
2023/08/20 02:24:11;;;;;;;0.10;0.10;;;;;;;23.36;58.42;101353.44;4908026;29;20032;-93
2023/08/20 02:26:36;;;;;;;0.10;0.10;;;;;;;23.11;58.55;101309.97;4907518;29;20023;-92
2023/08/20 02:29:02;;;;;;;0.10;0.10;;;;;;;22.98;59.33;101314.69;4907033;29;20478;-93
2023/08/20 02:31:28;;;;;;;0.10;0.10;;;;;;;23.18;59.22;101355.94;4907690;29;20038;-94
2023/08/20 02:33:53;;;;;;;0.10;0.10;;;;;;;23.21;59.04;101356.66;4907111;29;20027;-92
2023/08/20 02:36:19;;;;;;;0.10;0.10;;;;;;;23.24;58.85;101366.94;4907515;29;20042;-92
2023/08/20 02:38:45;;;;;;;0.10;0.10;;;;;;;23.32;58.43;101365.25;4907629;29;20090;-92
2023/08/20 02:41:12;;;;;;;0.10;0.10;;;;;;;23.50;58.19;101373.31;4907213;29;20046;-93
2023/08/20 02:43:37;;;;;;;0.10;0.10;;;;;;;23.54;57.86;101385.25;4907310;29;20044;-92
2023/08/20 02:46:03;;;;;;;0.10;0.10;;;;;;;23.49;57.91;101374.25;4906924;29;20465;-93
2023/08/20 02:48:29;;;;;;;0.10;0.10;;;;;;;23.58;57.97;101383.16;4907009;28;20035;-92
2023/08/20 02:50:54;;;;;;;0.10;0.10;;;;;;;23.38;58.22;101369.97;4907331;29;20461;-93
2023/08/20 02:53:21;;;;;;;0.10;0.10;;;;;;;23.50;57.86;101367.16;4907339;29;20031;-93
2023/08/20 02:55:46;;;;;;;0.20;0.20;;;;;;;23.35;57.71;101343.84;4907551;29;20031;-93
2023/08/20 02:58:12;;;;;;;0.10;0.10;;;;;;;23.43;58.00;101372.19;4907623;29;20042;-92
2023/08/20 03:00:37;;;;;;;0.10;0.10;;;;;;;23.39;58.08;101365.50;4906924;29;20031;-93
2023/08/20 03:03:05;;;;;;;0.10;0.10;;;;;;;23.23;58.39;101349.44;4922191;29;20047;-92
2023/08/20 03:05:32;;;;;;;0.10;0.10;;;;;;;23.28;58.77;101378.88;4907533;29;20042;-92
2023/08/20 03:07:57;;;;;;;0.10;0.10;;;;;;;23.26;59.19;101380.81;4906764;29;20038;-92
2023/08/20 03:10:23;;;;;;;0.10;0.10;;;;;;;23.20;59.02;101355.78;4906857;29;20023;-93
2023/08/20 03:12:48;;;;;;;0.10;0.10;;;;;;;23.39;59.26;101381.34;4906226;29;20038;-93
2023/08/20 03:15:14;;;;;;;0.10;0.10;;;;;;;23.37;59.02;101383.31;4906727;29;20050;-92
2023/08/20 03:17:39;;;;;;;0.10;0.10;;;;;;;23.22;59.57;101377.63;4906750;29;20035;-92
2023/08/20 03:20:06;;;;;;;0.20;0.20;;;;;;;23.25;59.34;101376.50;4906506;29;20034;-92
2023/08/20 03:22:31;;;;;;;0.10;0.10;;;;;;;23.19;59.17;101375.25;4922364;29;20461;-92
2023/08/20 03:24:57;;;;;;;0.10;0.10;;;;;;;23.13;59.53;101386.38;4921814;29;20038;-92
2023/08/20 03:27:22;;;;;;;0.10;0.10;;;;;;;22.95;59.43;101354.56;4905903;29;20033;-93
2023/08/20 03:29:48;;;;;;;0.10;0.10;;;;;;;22.98;60.05;101378.00;4906253;29;20409;-92
2023/08/20 03:32:14;;;;;;;0.10;0.10;;;;;;;23.00;60.14;101378.69;4905863;29;20489;-93
2023/08/20 03:34:39;;;;;;;0.10;0.10;;;;;;;23.09;59.93;101377.88;4905746;29;20043;-92
2023/08/20 03:37:05;;;;;;;0.10;0.10;;;;;;;23.02;59.74;101365.41;4906415;29;20027;-93
2023/08/20 03:39:32;;;;;;;0.20;0.20;;;;;;;22.97;59.41;101363.16;4906465;29;20123;-92
2023/08/20 03:41:57;;;;;;;0.10;0.10;;;;;;;22.98;59.37;101359.53;4905816;29;20035;-92
2023/08/20 03:44:23;;;;;;;0.10;0.10;;;;;;;23.06;59.62;101372.88;4905977;29;20035;-94
2023/08/20 03:46:48;;;;;;;0.10;0.10;;;;;;;22.90;59.66;101352.31;4906842;29;20062;-92
2023/08/20 03:49:14;;;;;;;0.10;0.10;;;;;;;23.14;59.68;101390.69;4905993;29;20500;-92
2023/08/20 03:51:40;;;;;;;0.10;0.10;;;;;;;22.84;60.25;101355.50;4906273;29;20035;-92
2023/08/20 03:54:06;;;;;;;0.13;0.13;;;;;;;22.93;60.27;101380.25;4906232;29;20035;-91
2023/08/20 03:56:31;;;;;;;0.15;0.15;;;;;;;22.87;60.13;101375.50;4905969;29;20035;-93
2023/08/20 03:58:57;;;;;;;0.10;0.10;;;;;;;23.03;59.84;101391.66;4905897;29;20193;-92
2023/08/20 04:01:22;;;;;;;0.10;0.10;;;;;;;22.99;60.17;101378.84;4905575;29;20037;-93
2023/08/20 04:03:48;;;;;;;0.10;0.10;;;;;;;22.89;60.54;101394.66;4905404;29;20410;-92
2023/08/20 04:06:15;;;;;;;0.10;0.10;;;;;;;23.02;60.24;101405.81;4905696;29;20046;-93
2023/08/20 04:08:40;;;;;;;0.20;0.20;;;;;;;22.81;60.21;101389.19;4905420;29;20130;-92
2023/08/20 04:11:06;;;;;;;0.10;0.10;;;;;;;22.88;60.36;101399.09;4905226;29;20070;-92
2023/08/20 04:13:31;;;;;;;0.20;0.20;;;;;;;22.96;59.64;101398.44;4921333;29;20039;-92
2023/08/20 04:15:57;;;;;;;0.10;0.10;;;;;;;22.90;59.67;101388.41;4905420;29;20107;-92
2023/08/20 04:18:22;;;;;;;0.20;0.20;;;;;;;22.87;60.03;101401.88;4905505;29;20027;-92
2023/08/20 04:20:51;;;;;;;0.20;0.20;;;;;;;22.80;60.70;101408.63;4905901;29;20034;-93
2023/08/20 04:23:16;;;;;;;0.10;0.10;;;;;;;22.87;60.48;101420.34;4920864;29;20126;-92
2023/08/20 04:25:42;;;;;;;0.20;0.20;;;;;;;22.82;60.48;101406.72;4905311;29;20549;-92
2023/08/20 04:28:07;;;;;;;0.20;0.20;;;;;;;22.60;61.22;101391.91;4905196;29;20106;-92
2023/08/20 04:30:35;;;;;;;0.10;0.10;;;;;;;22.79;60.62;101404.31;4905396;29;20043;-93
2023/08/20 04:33:00;;;;;;;0.20;0.20;;;;;;;22.77;60.52;101406.28;4905506;29;20053;-91
2023/08/20 04:35:26;;;;;;;0.20;0.20;;;;;;;22.85;60.23;101395.91;4905715;29;20493;-92
2023/08/20 04:37:51;;;;;;;0.10;0.10;;;;;;;22.98;60.05;101414.94;4906011;29;20023;-94
2023/08/20 04:40:17;;;;;;;0.20;0.20;;;;;;;22.89;60.49;101405.22;4905261;29;20023;-93
2023/08/20 04:42:42;;;;;;;0.20;0.20;;;;;;;23.08;60.62;101426.34;4904963;29;20027;-92
2023/08/20 04:45:08;;;;;;;0.10;0.10;;;;;;;23.22;59.61;101432.22;4905473;29;20035;-93
2023/08/20 04:47:34;;;;;;;0.20;0.20;;;;;;;23.27;59.24;101414.16;4905105;29;20031;-92
2023/08/20 04:49:59;;;;;;;0.20;0.20;;;;;;;23.08;59.53;101415.81;4905016;29;20038;-92
2023/08/20 04:52:25;;;;;;;0.20;0.20;;;;;;;23.25;59.19;101419.59;4905351;29;20532;-93
2023/08/20 04:54:50;;;;;;;0.20;0.20;;;;;;;23.25;59.36;101427.50;4905009;29;20067;-93
2023/08/20 04:57:16;;;;;;;0.10;0.10;;;;;;;23.13;59.73;101424.16;4920941;29;20027;-92
2023/08/20 04:59:45;;;;;;;0.20;0.20;;;;;;;23.27;59.56;101433.47;4905451;29;20039;-92
2023/08/20 05:02:11;;;;;;;0.20;0.20;;;;;;;23.19;59.76;101417.47;4906053;29;20129;-92
2023/08/20 05:04:37;;;;;;;0.10;0.10;;;;;;;23.23;59.41;101391.66;4905246;29;20536;-92
2023/08/20 05:07:03;;;;;;;0.20;0.20;;;;;;;23.37;58.99;101407.06;4906017;29;20027;-93
2023/08/20 05:09:29;;;;;;;0.15;0.15;;;;;;;23.50;58.58;101414.69;4905467;29;20042;-93
2023/08/20 05:11:54;;;;;;;0.10;0.10;;;;;;;23.51;58.62;101396.09;4906096;29;20027;-92
2023/08/20 05:14:20;;;;;;;0.20;0.20;;;;;;;23.75;58.61;101417.66;4909237;29;20031;-92
2023/08/20 05:16:45;;;;;;;0.15;0.15;;;;;;;23.97;58.53;101434.97;4908470;29;20039;-92
2023/08/20 05:19:11;;;;;;;0.20;0.20;;;;;;;24.15;57.62;101443.00;4908821;29;20441;-92
2023/08/20 05:21:36;;;;;;;0.10;0.10;;;;;;;23.98;58.04;101427.88;4908508;29;20031;-91
2023/08/20 05:24:02;;;;;;;0.17;0.17;;;;;;;24.02;57.60;101421.34;4908378;29;20093;-94
2023/08/20 05:26:27;;;;;;;0.20;0.20;;;;;;;24.29;57.58;101469.00;4908868;29;20023;-93
2023/08/20 05:28:53;;;;;;;0.20;0.20;;;;;;;24.20;56.72;101429.38;4908880;29;20034;-92
2023/08/20 05:31:18;;;;;;;0.10;0.10;;;;;;;24.36;56.47;101449.94;4909082;29;20482;-93
2023/08/20 05:33:44;;;;;;;0.10;0.10;;;;;;;24.49;56.58;101461.03;4908825;29;20038;-92
2023/08/20 05:36:09;;;;;;;0.20;0.20;;;;;;;24.46;56.54;101459.50;4908410;29;20043;-94
2023/08/20 05:38:35;;;;;;;0.10;0.10;;;;;;;24.68;56.81;101471.53;4908248;29;20058;-92
2023/08/20 05:41:00;;;;;;;0.20;0.20;;;;;;;24.60;56.83;101458.22;4908542;29;20031;-94
2023/08/20 05:43:26;;;;;;;0.20;0.20;;;;;;;24.68;56.67;101460.97;4909174;29;20042;-92
2023/08/20 05:45:51;;;;;;;0.20;0.20;;;;;;;24.62;56.77;101456.25;4908417;29;20477;-94
2023/08/20 05:48:17;;;;;;;0.10;0.10;;;;;;;24.71;56.83;101460.66;4909031;29;20031;-94
2023/08/20 05:50:42;;;;;;;0.20;0.20;;;;;;;24.78;57.17;101474.16;4908302;29;20482;-92
2023/08/20 05:53:08;;;;;;;0.20;0.20;;;;;;;24.99;56.24;101484.47;4923471;29;20035;-92
2023/08/20 05:55:34;;;;;;;0.10;0.10;;;;;;;24.93;56.06;101479.78;4908304;29;20031;-93
2023/08/20 05:57:59;;;;;;;0.20;0.20;;;;;;;25.05;55.81;101489.19;4909816;29;20090;-92
2023/08/20 06:00:25;;;;;;;0.10;0.10;;;;;;;25.10;56.01;101481.66;4907950;29;20453;-92
2023/08/20 06:02:50;;;;;;;0.20;0.20;;;;;;;25.16;55.92;101487.16;4907423;29;20052;-93
2023/08/20 06:05:16;;;;;;;0.20;0.20;;;;;;;25.22;55.86;101485.75;4923781;29;20031;-93
2023/08/20 06:07:41;;;;;;;0.20;0.20;;;;;;;25.34;55.00;101466.00;4907401;29;20039;-93
2023/08/20 06:10:07;;;;;;;0.20;0.20;;;;;;;25.34;55.39;101473.13;4908099;29;20032;-92
2023/08/20 06:12:33;;;;;;;0.20;0.20;;;;;;;25.51;55.70;101495.31;4908205;29;20035;-93
2023/08/20 06:14:59;;;;;;;0.20;0.20;;;;;;;25.52;55.40;101494.31;4907802;29;20572;-92
2023/08/20 06:17:24;;;;;;;0.20;0.20;;;;;;;25.64;54.49;101496.59;4907366;29;20035;-91
2023/08/20 06:19:50;;;;;;;0.20;0.20;;;;;;;25.79;54.09;101494.28;4907506;29;20034;-92
2023/08/20 06:22:15;;;;;;;0.20;0.20;;;;;;;25.93;53.35;101508.78;4907523;29;20087;-92
2023/08/20 06:24:41;;;;;;;0.20;0.20;;;;;;;26.00;52.92;101500.06;4906085;29;20095;-92
2023/08/20 06:27:06;;;;;;;0.20;0.20;;;;;;;25.77;53.03;101464.44;4909299;29;20027;-92
2023/08/20 06:29:32;;;;;;;0.20;0.20;;;;;;;26.07;52.53;101496.81;4923031;29;20027;-92
2023/08/20 06:31:57;;;;;;;0.20;0.20;;;;;;;25.98;52.66;101466.75;4907726;29;20031;-92
2023/08/20 06:34:23;;;;;;;0.20;0.20;;;;;;;25.97;52.31;101460.63;4922650;29;20039;-93
2023/08/20 06:36:49;;;;;;;0.20;0.20;;;;;;;26.22;51.54;101474.88;4910336;29;20027;-93
2023/08/20 06:39:15;;;;;;;0.20;0.20;;;;;;;26.48;51.04;101511.19;4925880;29;20162;-93
2023/08/20 06:41:41;;;;;;;0.20;0.20;;;;;;;26.50;50.83;101496.78;4906979;29;20034;-92
2023/08/20 06:44:06;;;;;;;0.10;0.10;;;;;;;26.62;50.31;101507.94;4906704;29;20023;-93
2023/08/20 06:46:32;;;;;;;0.20;0.20;;;;;;;26.67;49.17;101510.13;4906525;29;20107;-92
2023/08/20 06:48:57;;;;;;;0.20;0.20;;;;;;;26.61;48.91;101513.41;4906689;29;20493;-93
2023/08/20 06:51:23;;;;;;;0.20;0.20;;;;;;;26.69;49.08;101514.28;4906326;29;20034;-92
2023/08/20 06:53:49;;;;;;;0.20;0.20;;;;;;;26.82;49.25;101506.72;4923041;29;20058;-93
2023/08/20 06:56:14;;;;;;;0.20;0.20;;;;;;;26.99;48.20;101515.56;4906338;29;20060;-93
2023/08/20 06:58:41;;;;;;;0.10;0.10;;;;;;;26.98;47.39;101513.91;4906540;29;20039;-92
2023/08/20 07:01:09;;;;;;;0.20;0.20;;;;;;;27.17;47.63;101530.63;4906048;29;20401;-92
2023/08/20 07:03:42;;;;;;;0.20;0.20;;;;;;;27.20;47.11;101520.50;4922276;29;20047;-92
2023/08/20 07:06:09;;;;;;;0.20;0.20;;;;;;;27.26;46.61;101522.50;4905898;29;20027;-92
2023/08/20 07:08:34;;;;;;;0.10;0.10;;;;;;;27.25;46.67;101514.72;4922388;29;20046;-92
2023/08/20 07:11:00;;;;;;;0.20;0.20;;;;;;;27.41;46.67;101528.00;4905859;29;20066;-92
2023/08/20 07:13:25;;;;;;;0.20;0.20;;;;;;;27.62;46.82;101530.19;4921928;29;20031;-92
2023/08/20 07:15:51;;;;;;;0.20;0.20;;;;;;;27.72;46.53;101523.75;4905931;29;20075;-92
2023/08/20 07:18:16;;;;;;;0.20;0.20;;;;;;;27.67;46.59;101519.94;4922074;29;20501;-93
2023/08/20 07:20:42;;;;;;;0.20;0.20;;;;;;;27.73;46.00;101524.63;4905677;29;20130;-92
2023/08/20 07:23:08;;;;;;;0.20;0.20;;;;;;;27.74;45.95;101517.47;4905751;29;20117;-94
2023/08/20 07:25:39;;;;;;;0.20;0.20;;;;;;;27.86;45.79;101529.44;4906110;29;20064;-93
2023/08/20 07:28:05;;;;;;;0.10;0.10;;;;;;;27.78;45.97;101514.28;4921829;29;20517;-93
2023/08/20 07:30:30;;;;;;;0.20;0.20;;;;;;;27.97;46.04;101521.94;4937121;29;20050;-93
2023/08/20 07:32:56;;;;;;;0.20;0.20;;;;;;;28.07;45.74;101516.44;4905340;29;20023;-92
2023/08/20 07:35:21;;;;;;;0.20;0.20;;;;;;;28.18;45.46;101507.28;4905286;29;21152;-91
2023/08/20 07:37:47;;;;;;;0.20;0.20;;;;;;;28.29;45.02;101510.44;4905873;29;20024;-94
2023/08/20 07:40:13;;;;;;;0.20;0.20;;;;;;;28.19;45.39;101472.53;4907003;29;20682;-93
2023/08/20 07:42:40;;;;;;;0.20;0.20;;;;;;;28.49;45.43;101488.78;4905529;29;20039;-93
2023/08/20 07:45:07;;;;;;;0.20;0.20;;;;;;;28.66;44.09;101505.53;4905765;29;20493;-93
2023/08/20 07:47:32;;;;;;;0.20;0.20;;;;;;;28.69;44.29;101506.00;4924653;28;20419;-92
2023/08/20 07:49:58;;;;;;;0.20;0.20;;;;;;;28.79;43.71;101501.31;4924370;28;20027;-92
2023/08/20 07:52:23;;;;;;;0.20;0.20;;;;;;;28.90;43.47;101504.63;4924308;28;20062;-93
2023/08/20 07:54:49;;;;;;;0.20;0.20;;;;;;;28.99;43.00;101495.59;4940163;28;20030;-93
2023/08/20 07:57:14;;;;;;;0.20;0.20;;;;;;;29.08;43.38;101498.03;4924433;28;20035;-93
2023/08/20 07:59:40;;;;;;;0.20;0.20;;;;;;;29.25;43.07;101500.63;4924357;28;20466;-92
2023/08/20 08:02:05;;;;;;;0.20;0.20;;;;;;;29.37;42.21;101492.03;4923871;28;20027;-93
2023/08/20 08:04:31;;;;;;;0.20;0.20;;;;;;;29.53;41.82;101492.97;4923919;28;20050;-92
2023/08/20 08:06:56;;;;;;;0.20;0.20;;;;;;;29.65;41.04;101496.88;4923986;28;20027;-91
2023/08/20 08:09:30;;;;;;;0.20;0.20;;;;;;;29.78;40.90;101483.75;4924184;28;20038;-92
2023/08/20 08:11:55;;;;;;;0.20;0.20;;;;;;;29.84;40.83;101482.22;4941000;28;20566;-93
2023/08/20 08:14:21;;;;;;;0.20;0.20;;;;;;;29.98;40.21;101482.22;4924517;28;20058;-92
2023/08/20 08:16:46;;;;;;;0.20;0.20;;;;;;;29.99;40.06;101489.25;4923577;28;20516;-94
2023/08/20 08:19:12;;;;;;;0.20;0.20;;;;;;;29.94;40.03;101466.78;4923647;28;20030;-92
2023/08/20 08:21:37;;;;;;;0.20;0.20;;;;;;;30.18;39.86;101476.38;4923954;28;20035;-92
2023/08/20 08:24:03;;;;;;;0.20;0.20;;;;;;;30.38;41.05;101488.19;4923918;28;20121;-92
2023/08/20 08:26:29;;;;;;;0.20;0.20;;;;;;;30.41;39.36;101487.81;4939468;28;20035;-92
2023/08/20 08:28:55;;;;;;;0.20;0.20;;;;;;;30.56;39.59;101483.28;4923778;28;20080;-93
2023/08/20 08:31:20;;;;;;;0.20;0.20;;;;;;;30.66;39.06;101482.22;4923611;28;20473;-95
2023/08/20 08:33:46;;;;;;;0.20;0.20;;;;;;;30.67;39.33;101487.38;4923783;28;20034;-92
2023/08/20 08:36:11;;;;;;;0.20;0.20;;;;;;;30.75;38.38;101483.75;4924156;28;20090;-93
2023/08/20 08:38:37;;;;;;;0.20;0.20;;;;;;;30.83;38.52;101471.13;4924082;28;20049;-93
2023/08/20 08:41:06;;;;;;;0.20;0.20;;;;;;;30.96;38.00;101462.44;4955635;28;20033;-93
2023/08/20 08:43:31;;;;;;;0.20;0.20;;;;;;;31.09;38.36;101465.28;4923925;28;20093;-92
2023/08/20 08:45:57;;;;;;;0.20;0.20;;;;;;;31.33;37.61;101471.28;4923630;28;20034;-91
2023/08/20 08:48:22;;;;;;;0.20;0.20;;;;;;;31.40;37.43;101472.19;4926282;28;20404;-92
2023/08/20 08:50:49;;;;;;;0.20;0.20;;;;;;;31.53;36.96;101474.97;4928064;28;20034;-93
2023/08/20 08:53:14;;;;;;;0.20;0.20;;;;;;;31.63;37.29;101478.16;4927749;28;20357;-92
2023/08/20 08:55:40;;;;;;;0.20;0.20;;;;;;;31.62;37.30;101481.03;4927567;28;20097;-92
2023/08/20 08:58:05;;;;;;;0.20;0.20;;;;;;;31.53;37.02;101471.47;4928319;28;20034;-93
2023/08/20 09:00:32;;;;;;;0.20;0.20;;;;;;;31.60;36.76;101473.19;4943178;28;20089;-93
2023/08/20 09:02:58;;;;;;;0.20;0.20;;;;;;;31.61;36.73;101457.97;4927864;28;20429;-92
2023/08/20 09:05:23;;;;;;;0.20;0.20;;;;;;;31.66;37.37;101459.06;4927456;28;20037;-93
2023/08/20 09:07:55;;;;;;;0.20;0.20;;;;;;;31.61;37.31;101434.72;4927216;28;20029;-92
2023/08/20 09:10:20;;;;;;;0.20;0.20;;;;;;;31.96;36.59;101472.28;4943676;28;20035;-92
2023/08/20 09:12:47;;;;;;;0.20;0.20;;;;;;;32.27;35.75;101468.34;4926990;28;20070;-93
2023/08/20 09:15:12;;;;;;;0.20;0.20;;;;;;;32.42;35.06;101461.84;4926967;28;20476;-92
2023/08/20 09:17:40;;;;;;;0.20;0.20;;;;;;;32.65;34.91;101468.78;4926960;28;20046;-92
2023/08/20 09:20:06;;;;;;;0.20;0.20;;;;;;;32.77;34.62;101469.84;4927159;28;20027;-92
2023/08/20 09:22:31;;;;;;;0.20;0.20;;;;;;;32.96;34.43;101473.66;4926293;28;20031;-93
2023/08/20 09:24:57;;;;;;;0.20;0.20;;;;;;;33.03;34.41;101469.13;4926871;28;20023;-91
2023/08/20 09:27:23;;;;;;;0.30;0.30;;;;;;;33.01;34.89;101444.38;4926730;28;20031;-93
2023/08/20 09:29:49;;;;;;;0.20;0.20;;;;;;;33.29;35.06;101463.81;4926677;28;20039;-93
2023/08/20 09:32:24;;;;;;;0.20;0.20;;;;;;;33.50;33.74;101467.38;4942381;28;20034;-92
2023/08/20 09:34:52;;;;;;;0.20;0.20;;;;;;;33.49;33.89;101466.53;4926494;28;20074;-93
2023/08/20 09:37:19;;;;;;;0.20;0.20;;;;;;;33.52;32.67;101462.63;4927234;28;20031;-92
2023/08/20 09:39:44;;;;;;;0.20;0.20;;;;;;;33.44;32.82;101438.69;4942602;28;20029;-94
2023/08/20 09:42:10;;;;;;;0.20;0.20;;;;;;;33.69;32.82;101453.13;4942212;28;20034;-92
2023/08/20 09:44:38;;;;;;;0.30;0.30;;;;;;;33.81;32.19;101448.78;4942009;28;20041;-94
2023/08/20 09:47:14;;;;;;;0.30;0.30;;;;;;;34.02;31.48;101458.50;4926462;28;20027;-92
2023/08/20 09:49:41;;;;;;;0.22;0.22;;;;;;;34.04;31.56;101450.22;4927293;28;20034;-93
2023/08/20 09:52:11;;;;;;;0.22;0.22;;;;;;;34.13;32.17;101446.28;4926296;28;20128;-93
2023/08/20 09:54:48;;;;;;;0.20;0.20;;;;;;;34.21;31.45;101457.59;4958113;28;20026;-95
2023/08/20 09:57:36;;;;;;;0.20;0.20;;;;;;;34.44;31.27;101450.97;4942065;28;20031;-94
2023/08/20 10:00:02;;;;;;;0.22;0.22;;;;;;;34.31;31.04;101435.66;4941311;28;20033;-93
2023/08/20 10:02:28;;;;;;;0.20;0.20;;;;;;;34.36;30.80;101421.63;4926348;28;20089;-93
2023/08/20 10:04:53;;;;;;;0.30;0.30;;;;;;;34.85;30.60;101445.19;4926183;28;20030;-91
2023/08/20 10:07:19;;;;;;;0.30;0.30;;;;;;;34.84;29.81;101427.41;4941875;28;20034;-92
2023/08/20 10:09:45;;;;;;;0.20;0.20;;;;;;;34.89;30.06;101432.97;4942108;28;20031;-93
2023/08/20 10:12:12;;;;;;;0.20;0.20;;;;;;;34.87;30.41;101442.28;4926062;28;20045;-91
2023/08/20 10:14:38;;;;;;;0.30;0.30;;;;;;;34.83;30.38;101427.63;4925882;28;20086;-94
2023/08/20 10:17:08;;;;;;;0.30;0.30;;;;;;;34.94;30.09;101419.72;4925842;28;20026;-92
2023/08/20 10:19:33;;;;;;;0.20;0.20;;;;;;;34.85;30.17;101410.25;4926087;28;20109;-93
2023/08/20 10:21:59;;;;;;;0.25;0.25;;;;;;;35.16;30.43;101428.25;4925921;28;20078;-92
2023/08/20 10:24:24;;;;;;;0.30;0.30;;;;;;;35.20;29.62;101434.88;4925695;28;20503;-93
2023/08/20 10:27:09;;;;;;;0.30;0.30;;;;;;;35.11;29.67;101429.97;4925329;28;20433;-91
2023/08/20 10:29:36;;;;;;;0.30;0.30;;;;;;;35.19;30.36;101430.50;4926608;28;20023;-93
2023/08/20 10:32:05;;;;;;;0.30;0.30;;;;;;;35.40;30.32;101429.38;4941746;28;20027;-91
2023/08/20 10:34:38;;;;;;;0.30;0.30;;;;;;;35.66;29.13;101424.78;4925716;28;20033;-92
2023/08/20 10:37:09;;;;;;;0.30;0.30;;;;;;;35.64;29.36;101425.81;4927075;28;20062;-92
2023/08/20 10:39:35;;;;;;;0.30;0.30;;;;;;;35.21;30.32;101424.94;4925906;28;20085;-92
2023/08/20 10:42:15;;;;;;;0.20;0.20;;;;;;;35.22;30.04;101432.78;4941096;28;20031;-94
2023/08/20 10:44:57;;;;;;;0.30;0.30;;;;;;;35.35;29.82;101415.69;4957254;28;20039;-93
2023/08/20 10:47:23;;;;;;;0.30;0.30;;;;;;;35.41;29.81;101414.88;4940814;28;20023;-93
2023/08/20 10:49:53;;;;;;;0.30;0.30;;;;;;;35.39;30.01;101411.53;4925533;28;20079;-94
2023/08/20 10:52:20;;;;;;;0.30;0.30;;;;;;;35.07;30.67;101408.88;4925443;28;20080;-91
2023/08/20 10:54:45;;;;;;;0.30;0.30;;;;;;;35.10;30.68;101380.72;4925211;28;20023;-93
2023/08/20 10:57:10;;;;;;;0.30;0.30;;;;;;;35.29;29.54;101373.53;4940619;28;20113;-93
2023/08/20 10:59:39;;;;;;;0.30;0.30;;;;;;;35.59;29.80;101396.03;4925173;28;20022;-93
2023/08/20 11:02:05;;;;;;;0.30;0.30;;;;;;;35.67;30.15;101391.44;4925149;28;20041;-93
2023/08/20 11:04:34;;;;;;;0.30;0.30;;;;;;;36.01;29.42;101393.59;4940863;28;20055;-94
2023/08/20 11:07:00;;;;;;;0.30;0.30;;;;;;;36.30;28.26;101394.69;4925557;28;20477;-93
2023/08/20 11:09:29;;;;;;;0.30;0.30;;;;;;;36.31;28.98;101399.03;4924670;28;20054;-94
2023/08/20 11:11:55;;;;;;;0.20;0.20;;;;;;;36.22;29.12;101388.78;4924264;28;20031;-94
2023/08/20 11:14:21;;;;;;;0.30;0.30;;;;;;;36.34;29.01;101386.97;4924866;28;20118;-93
2023/08/20 11:16:47;;;;;;;0.28;0.28;;;;;;;36.50;28.48;101380.97;4940648;28;20066;-92
2023/08/20 11:19:13;;;;;;;0.30;0.30;;;;;;;36.47;28.33;101381.41;4940579;28;20030;-94
2023/08/20 11:21:39;;;;;;;0.30;0.30;;;;;;;36.61;27.59;101382.91;4924747;28;20034;-94